Time;durP1;ratioP1;P1;durP2;ratioP2;P2;SDS_P1;SDS_P2;PMS_P1;PMS_P2;Temp;Humidity;BMP_temperature;BMP_pressure;BME280_temperature;BME280_humidity;BME280_pressure;Samples;Min_cycle;Max_cycle;Signal;HPM_P1;HPM_P2
2022/09/07 00:02:25;;;;;;;0.80;0.70;;;;;;;;;;1887674;75;26816;-39
2022/09/07 00:04:52;;;;;;;0.88;0.70;;;;;;;;;;1899447;75;26223;-46
2022/09/07 00:07:19;;;;;;;0.75;0.70;;;;;;;;;;1893134;75;26231;-40
2022/09/07 00:09:46;;;;;;;0.78;0.78;;;;;;;;;;1896206;75;26247;-41
2022/09/07 00:12:14;;;;;;;0.70;0.70;;;;;;;;;;1887525;75;26275;-52
2022/09/07 00:14:41;;;;;;;0.60;0.60;;;;;;;;;;1891320;75;26187;-44
2022/09/07 00:17:08;;;;;;;0.70;0.70;;;;;;;;;;1894441;75;26305;-40
2022/09/07 00:19:36;;;;;;;0.68;0.68;;;;;;;;;;1889668;75;26320;-40
2022/09/07 00:22:03;;;;;;;0.70;0.70;;;;;;;;;;1891809;75;26255;-45
2022/09/07 00:24:30;;;;;;;0.60;0.60;;;;;;;;;;1897685;75;26321;-42
2022/09/07 00:26:58;;;;;;;0.60;0.60;;;;;;;;;;1889089;75;26789;-42
2022/09/07 00:29:26;;;;;;;0.60;0.60;;;;;;;;;;1896587;75;26232;-40
2022/09/07 00:31:53;;;;;;;0.60;0.60;;;;;;;;;;1899635;75;26294;-41
2022/09/07 00:34:20;;;;;;;0.68;0.68;;;;;;;;;;1895756;75;26333;-40
2022/09/07 00:36:47;;;;;;;0.70;0.70;;;;;;;;;;1896455;75;26694;-40
2022/09/07 00:39:15;;;;;;;0.60;0.60;;;;;;;;;;1891976;75;26651;-46
2022/09/07 00:41:42;;;;;;;0.60;0.60;;;;;;;;;;1885234;75;27302;-43
2022/09/07 00:44:28;;;;;;;0.57;0.57;;;;;;;;;;1900314;75;26759;-45
2022/09/07 00:46:55;;;;;;;0.60;0.60;;;;;;;;;;1898534;75;27482;-45
2022/09/07 00:49:22;;;;;;;0.60;0.60;;;;;;;;;;1900902;75;27045;-39
2022/09/07 00:51:52;;;;;;;0.60;0.60;;;;;;;;;;1901279;75;26350;-42
2022/09/07 00:54:20;;;;;;;0.50;0.50;;;;;;;;;;1885767;75;26258;-41
2022/09/07 00:56:49;;;;;;;0.68;0.68;;;;;;;;;;1900445;75;26243;-43
2022/09/07 00:59:18;;;;;;;0.65;0.65;;;;;;;;;;1882716;75;26694;-40
2022/09/07 01:01:45;;;;;;;0.60;0.60;;;;;;;;;;1872268;75;26852;-42
2022/09/07 01:04:13;;;;;;;0.75;0.75;;;;;;;;;;1888664;75;26347;-42
2022/09/07 01:06:42;;;;;;;0.50;0.50;;;;;;;;;;1861441;76;26840;-39
2022/09/07 01:09:11;;;;;;;0.85;0.60;;;;;;;;;;1875043;75;26916;-40
2022/09/07 01:11:38;;;;;;;0.45;0.45;;;;;;;;;;1868480;75;26299;-41
2022/09/07 01:14:07;;;;;;;0.50;0.50;;;;;;;;;;1857985;76;26288;-46
2022/09/07 01:16:48;;;;;;;1.35;0.60;;;;;;;;;;1877881;75;26273;-39
2022/09/07 01:19:20;;;;;;;0.60;0.60;;;;;;;;;;1866344;76;26266;-40
2022/09/07 01:22:01;;;;;;;1.05;0.57;;;;;;;;;;1868147;76;26245;-41
2022/09/07 01:24:36;;;;;;;0.85;0.65;;;;;;;;;;1875938;76;26347;-41
2022/09/07 01:27:22;;;;;;;0.55;0.55;;;;;;;;;;1876124;75;26193;-46
2022/09/07 01:29:53;;;;;;;0.60;0.60;;;;;;;;;;1870599;76;26198;-43
2022/09/07 01:32:40;;;;;;;0.40;0.40;;;;;;;;;;1850240;76;26260;-47
2022/09/07 01:35:09;;;;;;;0.50;0.50;;;;;;;;;;1848554;76;26352;-42
2022/09/07 01:37:43;;;;;;;0.55;0.55;;;;;;;;;;1860088;76;26363;-55
2022/09/07 01:40:15;;;;;;;0.50;0.50;;;;;;;;;;1854275;75;26320;-43
2022/09/07 01:42:47;;;;;;;0.60;0.60;;;;;;;;;;1871725;76;26302;-40
2022/09/07 01:45:16;;;;;;;0.50;0.50;;;;;;;;;;1876346;76;26259;-39
2022/09/07 01:47:45;;;;;;;0.50;0.50;;;;;;;;;;1869691;75;26266;-42
2022/09/07 01:50:16;;;;;;;1.15;0.60;;;;;;;;;;1870425;75;26315;-43
2022/09/07 01:52:48;;;;;;;0.40;0.40;;;;;;;;;;1851256;76;26280;-43
2022/09/07 01:55:17;;;;;;;0.50;0.50;;;;;;;;;;1885119;75;26242;-40
2022/09/07 01:57:46;;;;;;;0.50;0.50;;;;;;;;;;1872018;76;26360;-43
2022/09/07 02:00:14;;;;;;;0.50;0.50;;;;;;;;;;1865677;76;26247;-40
2022/09/07 02:02:46;;;;;;;0.40;0.40;;;;;;;;;;1876208;75;26824;-41
2022/09/07 02:05:18;;;;;;;0.53;0.53;;;;;;;;;;1871694;76;26294;-42
2022/09/07 02:07:47;;;;;;;0.40;0.40;;;;;;;;;;1862336;75;26244;-40
2022/09/07 02:10:22;;;;;;;0.50;0.50;;;;;;;;;;1859321;75;26677;-39
2022/09/07 02:12:53;;;;;;;0.60;0.60;;;;;;;;;;1879628;75;26836;-40
2022/09/07 02:15:25;;;;;;;0.50;0.50;;;;;;;;;;1839719;75;26273;-41
2022/09/07 02:17:54;;;;;;;0.40;0.40;;;;;;;;;;1866335;75;26194;-39
2022/09/07 02:20:25;;;;;;;0.60;0.60;;;;;;;;;;1863177;76;26343;-40
2022/09/07 02:22:54;;;;;;;0.60;0.60;;;;;;;;;;1854702;76;26226;-45
2022/09/07 02:25:23;;;;;;;0.65;0.65;;;;;;;;;;1848955;75;26633;-47
2022/09/07 02:27:56;;;;;;;0.60;0.60;;;;;;;;;;1855845;75;26671;-46
2022/09/07 02:30:23;;;;;;;0.50;0.50;;;;;;;;;;1852495;75;26246;-42
2022/09/07 02:32:51;;;;;;;0.40;0.40;;;;;;;;;;1869265;76;26319;-39
2022/09/07 02:35:18;;;;;;;0.50;0.50;;;;;;;;;;1849416;75;26311;-44
2022/09/07 02:37:46;;;;;;;0.50;0.50;;;;;;;;;;1859876;75;26716;-42
2022/09/07 02:40:14;;;;;;;0.47;0.47;;;;;;;;;;1866393;75;26323;-42
2022/09/07 02:42:42;;;;;;;0.60;0.60;;;;;;;;;;1847263;76;26607;-41
2022/09/07 02:45:11;;;;;;;0.50;0.50;;;;;;;;;;1862903;75;26331;-46
2022/09/07 02:47:55;;;;;;;0.40;0.40;;;;;;;;;;1872424;75;26254;-40
2022/09/07 02:50:36;;;;;;;0.60;0.60;;;;;;;;;;1843561;76;26226;-41
2022/09/07 02:53:08;;;;;;;0.50;0.50;;;;;;;;;;1863516;76;27494;-44
2022/09/07 02:55:42;;;;;;;0.40;0.40;;;;;;;;;;1868922;76;26670;-42
2022/09/07 02:58:23;;;;;;;0.40;0.40;;;;;;;;;;1877733;76;26707;-43
2022/09/07 03:00:58;;;;;;;0.60;0.60;;;;;;;;;;1807921;75;26215;-41
2022/09/07 03:03:27;;;;;;;0.50;0.50;;;;;;;;;;1861119;75;26286;-40
2022/09/07 03:05:58;;;;;;;0.50;0.50;;;;;;;;;;1848041;75;26302;-44
2022/09/07 03:08:39;;;;;;;0.45;0.45;;;;;;;;;;1868666;75;26301;-43
2022/09/07 03:11:07;;;;;;;0.50;0.50;;;;;;;;;;1881052;75;26255;-40
2022/09/07 03:13:34;;;;;;;0.80;0.60;;;;;;;;;;1869039;75;26262;-39
2022/09/07 03:16:02;;;;;;;0.45;0.45;;;;;;;;;;1885347;75;26247;-44
2022/09/07 03:18:29;;;;;;;0.50;0.50;;;;;;;;;;1900669;75;26216;-42
2022/09/07 03:20:56;;;;;;;0.50;0.50;;;;;;;;;;1888708;75;26188;-41
2022/09/07 03:23:24;;;;;;;0.88;0.50;;;;;;;;;;1897175;75;26305;-43
2022/09/07 03:25:51;;;;;;;0.40;0.40;;;;;;;;;;1880976;75;26723;-43
2022/09/07 03:28:18;;;;;;;0.60;0.60;;;;;;;;;;1893317;75;26306;-40
2022/09/07 03:30:46;;;;;;;0.50;0.50;;;;;;;;;;1899117;75;26224;-44
2022/09/07 03:33:16;;;;;;;0.57;0.50;;;;;;;;;;1877543;75;26749;-44
2022/09/07 03:35:44;;;;;;;0.50;0.50;;;;;;;;;;1894727;75;26227;-43
2022/09/07 03:38:12;;;;;;;0.50;0.50;;;;;;;;;;1873968;75;26269;-45
2022/09/07 03:40:39;;;;;;;0.50;0.50;;;;;;;;;;1874008;75;26561;-45
2022/09/07 03:43:06;;;;;;;0.47;0.47;;;;;;;;;;1882215;75;26255;-45
2022/09/07 03:45:34;;;;;;;1.10;0.53;;;;;;;;;;1882871;75;26282;-49
2022/09/07 03:48:01;;;;;;;0.50;0.50;;;;;;;;;;1871728;75;26224;-48
2022/09/07 03:50:28;;;;;;;0.40;0.40;;;;;;;;;;1875879;75;26262;-40
2022/09/07 03:52:56;;;;;;;0.60;0.60;;;;;;;;;;1875838;75;26210;-42
2022/09/07 03:55:23;;;;;;;0.50;0.50;;;;;;;;;;1875173;75;26338;-43
2022/09/07 03:57:50;;;;;;;0.50;0.50;;;;;;;;;;1872840;75;26634;-39
2022/09/07 04:00:17;;;;;;;0.50;0.50;;;;;;;;;;1888684;75;26623;-45
2022/09/07 04:02:45;;;;;;;0.50;0.50;;;;;;;;;;1869030;75;26388;-42
2022/09/07 04:05:12;;;;;;;0.40;0.40;;;;;;;;;;1849487;76;26336;-45
2022/09/07 04:07:40;;;;;;;0.50;0.50;;;;;;;;;;1840046;76;26272;-40
2022/09/07 04:10:08;;;;;;;0.50;0.50;;;;;;;;;;1840070;77;26234;-45
2022/09/07 04:12:35;;;;;;;0.53;0.53;;;;;;;;;;1848557;76;26203;-40
2022/09/07 04:15:02;;;;;;;0.40;0.40;;;;;;;;;;1842725;76;26651;-44
2022/09/07 04:17:30;;;;;;;0.78;0.50;;;;;;;;;;1850968;76;26246;-42
2022/09/07 04:19:57;;;;;;;0.55;0.47;;;;;;;;;;1844234;76;26259;-44
2022/09/07 04:22:24;;;;;;;2.12;0.47;;;;;;;;;;1836577;76;26227;-42
2022/09/07 04:24:51;;;;;;;0.40;0.40;;;;;;;;;;1845118;77;26238;-42
2022/09/07 04:27:19;;;;;;;2.08;0.50;;;;;;;;;;1852376;76;26301;-41
2022/09/07 04:29:47;;;;;;;0.50;0.50;;;;;;;;;;1845424;76;26271;-47
2022/09/07 04:32:14;;;;;;;0.50;0.50;;;;;;;;;;1852132;77;26808;-41
2022/09/07 04:34:41;;;;;;;0.50;0.50;;;;;;;;;;1839400;77;26781;-43
2022/09/07 04:37:08;;;;;;;1.45;0.50;;;;;;;;;;1845548;76;27429;-41
2022/09/07 04:39:36;;;;;;;0.40;0.40;;;;;;;;;;1847524;76;26238;-43
2022/09/07 04:42:03;;;;;;;0.47;0.47;;;;;;;;;;1850808;76;26277;-41
2022/09/07 04:44:30;;;;;;;0.75;0.40;;;;;;;;;;1842306;77;27308;-40
2022/09/07 04:46:58;;;;;;;0.40;0.40;;;;;;;;;;1850565;76;26740;-47
2022/09/07 04:49:25;;;;;;;0.50;0.50;;;;;;;;;;1843687;76;26728;-44
2022/09/07 04:51:52;;;;;;;1.02;0.57;;;;;;;;;;1855106;77;26646;-43
2022/09/07 04:54:19;;;;;;;0.40;0.40;;;;;;;;;;1847512;76;26386;-43
2022/09/07 04:56:47;;;;;;;1.70;0.40;;;;;;;;;;1851519;76;26539;-42
2022/09/07 04:59:14;;;;;;;2.37;0.60;;;;;;;;;;1832753;76;26254;-44
2022/09/07 05:01:41;;;;;;;25.62;1.10;;;;;;;;;;1840925;76;26281;-41
2022/09/07 05:04:08;;;;;;;4.15;0.60;;;;;;;;;;1864353;75;26381;-47
2022/09/07 05:06:36;;;;;;;1.15;0.60;;;;;;;;;;1895924;75;26235;-46
2022/09/07 05:09:03;;;;;;;3.20;0.55;;;;;;;;;;1893108;75;26312;-45
2022/09/07 05:11:30;;;;;;;1.85;0.60;;;;;;;;;;1891790;75;26255;-41
2022/09/07 05:13:59;;;;;;;2.15;0.68;;;;;;;;;;1895892;75;26235;-43
2022/09/07 05:16:27;;;;;;;5.30;0.62;;;;;;;;;;1894976;75;26226;-43
2022/09/07 05:18:55;;;;;;;4.17;0.82;;;;;;;;;;1903206;75;26669;-40
2022/09/07 05:21:27;;;;;;;4.95;0.90;;;;;;;;;;1890700;75;26306;-44
2022/09/07 05:23:55;;;;;;;0.55;0.47;;;;;;;;;;1892778;75;26201;-41
2022/09/07 05:26:23;;;;;;;2.67;0.62;;;;;;;;;;1891025;75;26273;-41
2022/09/07 05:28:50;;;;;;;3.70;0.72;;;;;;;;;;1893435;75;26327;-47
2022/09/07 05:31:19;;;;;;;3.83;0.80;;;;;;;;;;1895074;75;26214;-43
2022/09/07 05:33:48;;;;;;;6.22;0.90;;;;;;;;;;1884789;75;26718;-42
2022/09/07 05:36:15;;;;;;;7.28;0.80;;;;;;;;;;1887852;75;26310;-40
2022/09/07 05:38:42;;;;;;;5.67;0.80;;;;;;;;;;1883434;75;26246;-41
2022/09/07 05:41:13;;;;;;;10.08;0.98;;;;;;;;;;1877877;75;26815;-42
2022/09/07 05:43:40;;;;;;;1.45;0.65;;;;;;;;;;1877617;75;26323;-43
2022/09/07 05:46:08;;;;;;;1.90;0.70;;;;;;;;;;1880835;75;26301;-42
2022/09/07 05:48:35;;;;;;;3.92;0.80;;;;;;;;;;1904670;75;26215;-47
2022/09/07 05:51:03;;;;;;;6.40;0.78;;;;;;;;;;1869514;75;26191;-42
2022/09/07 05:53:30;;;;;;;4.53;0.75;;;;;;;;;;1877189;75;26788;-40
2022/09/07 05:55:59;;;;;;;1.67;0.70;;;;;;;;;;1902631;75;26320;-42
2022/09/07 05:58:26;;;;;;;2.55;0.70;;;;;;;;;;1897396;75;26313;-41
2022/09/07 06:01:00;;;;;;;3.87;0.85;;;;;;;;;;1887445;75;26825;-40
2022/09/07 06:03:28;;;;;;;2.05;0.82;;;;;;;;;;1898235;75;26862;-40
2022/09/07 06:06:02;;;;;;;2.40;0.70;;;;;;;;;;1901051;75;26253;-41
2022/09/07 06:08:30;;;;;;;0.98;0.55;;;;;;;;;;1892542;75;26291;-40
2022/09/07 06:10:57;;;;;;;6.05;0.80;;;;;;;;;;1896418;75;26823;-41
2022/09/07 06:13:24;;;;;;;2.52;0.90;;;;;;;;;;1879757;75;26812;-40
2022/09/07 06:15:51;;;;;;;1.55;0.50;;;;;;;;;;1896873;75;26258;-42
2022/09/07 06:18:19;;;;;;;0.90;0.55;;;;;;;;;;1886178;75;26289;-49
2022/09/07 06:20:46;;;;;;;3.75;0.80;;;;;;;;;;1887098;75;26235;-44
2022/09/07 06:23:13;;;;;;;1.92;0.60;;;;;;;;;;1893503;75;26656;-41
2022/09/07 06:25:42;;;;;;;1.65;0.62;;;;;;;;;;1898288;75;27268;-40
2022/09/07 06:28:09;;;;;;;2.42;0.95;;;;;;;;;;1894650;75;26235;-42
2022/09/07 06:30:36;;;;;;;2.02;0.68;;;;;;;;;;1895449;75;26247;-45
2022/09/07 06:33:04;;;;;;;1.32;0.45;;;;;;;;;;1888269;75;26564;-43
2022/09/07 06:35:31;;;;;;;1.80;0.55;;;;;;;;;;1901195;75;26282;-45
2022/09/07 06:37:58;;;;;;;0.80;0.50;;;;;;;;;;1893330;74;26271;-47
2022/09/07 06:40:26;;;;;;;12.40;0.95;;;;;;;;;;1892536;74;26347;-40
2022/09/07 06:42:53;;;;;;;0.75;0.40;;;;;;;;;;1886541;74;26219;-46
2022/09/07 06:45:20;;;;;;;0.85;0.50;;;;;;;;;;1884375;74;26230;-40
2022/09/07 06:47:47;;;;;;;0.62;0.60;;;;;;;;;;1902187;75;26199;-42
2022/09/07 06:50:16;;;;;;;1.15;0.75;;;;;;;;;;1894812;75;26243;-45
2022/09/07 06:52:43;;;;;;;0.50;0.50;;;;;;;;;;1902017;75;26316;-40
2022/09/07 06:55:10;;;;;;;0.65;0.42;;;;;;;;;;1892273;75;26248;-42
2022/09/07 06:57:37;;;;;;;0.40;0.40;;;;;;;;;;1880611;75;26228;-40
2022/09/07 07:00:05;;;;;;;0.40;0.40;;;;;;;;;;1895742;75;26348;-46
2022/09/07 07:02:32;;;;;;;1.80;0.47;;;;;;;;;;1891675;75;26296;-40
2022/09/07 07:05:00;;;;;;;0.30;0.30;;;;;;;;;;1879539;75;26725;-43
2022/09/07 07:07:27;;;;;;;1.17;0.30;;;;;;;;;;1885616;75;26313;-43
2022/09/07 07:09:54;;;;;;;0.53;0.50;;;;;;;;;;1887799;75;26384;-40
2022/09/07 07:12:21;;;;;;;0.55;0.55;;;;;;;;;;1880941;75;26267;-40
2022/09/07 07:14:49;;;;;;;1.02;0.50;;;;;;;;;;1871351;75;26399;-40
2022/09/07 07:17:16;;;;;;;2.47;0.50;;;;;;;;;;1894139;75;26308;-46
2022/09/07 07:19:43;;;;;;;0.40;0.40;;;;;;;;;;1889036;75;26188;-40
2022/09/07 07:22:10;;;;;;;0.30;0.30;;;;;;;;;;1883337;75;26241;-40
2022/09/07 07:24:38;;;;;;;0.50;0.50;;;;;;;;;;1885144;75;26270;-40
2022/09/07 07:27:05;;;;;;;0.60;0.60;;;;;;;;;;1882775;75;26318;-45
2022/09/07 07:29:33;;;;;;;2.98;0.70;;;;;;;;;;1899267;75;26305;-43
2022/09/07 07:32:00;;;;;;;1.55;0.42;;;;;;;;;;1894573;75;26274;-44
2022/09/07 07:34:28;;;;;;;0.50;0.50;;;;;;;;;;1891765;75;26234;-43
2022/09/07 07:36:55;;;;;;;1.30;0.40;;;;;;;;;;1888884;75;26219;-45
2022/09/07 07:39:22;;;;;;;1.57;0.40;;;;;;;;;;1884054;75;26309;-40
2022/09/07 07:41:50;;;;;;;0.40;0.40;;;;;;;;;;1891371;75;26668;-41
2022/09/07 07:44:18;;;;;;;0.45;0.45;;;;;;;;;;1885933;75;26251;-41
2022/09/07 07:46:49;;;;;;;0.53;0.53;;;;;;;;;;1892984;75;26239;-53
2022/09/07 07:49:16;;;;;;;4.65;0.50;;;;;;;;;;1893081;75;27215;-48
2022/09/07 07:51:44;;;;;;;1.25;0.40;;;;;;;;;;1894088;75;26262;-43
2022/09/07 07:54:11;;;;;;;0.85;0.60;;;;;;;;;;1877174;75;26270;-45
2022/09/07 07:56:38;;;;;;;0.85;0.50;;;;;;;;;;1882298;75;26255;-52
2022/09/07 07:59:06;;;;;;;0.50;0.50;;;;;;;;;;1874656;75;26981;-44
2022/09/07 08:01:33;;;;;;;5.00;0.53;;;;;;;;;;1884040;75;27490;-41
2022/09/07 08:04:00;;;;;;;3.65;0.62;;;;;;;;;;1887569;75;26209;-43
2022/09/07 08:06:28;;;;;;;0.40;0.40;;;;;;;;;;1877667;75;26822;-40
2022/09/07 08:08:56;;;;;;;5.25;0.50;;;;;;;;;;1880112;75;26334;-43
2022/09/07 08:11:23;;;;;;;0.40;0.40;;;;;;;;;;1893998;75;26347;-46
2022/09/07 08:13:51;;;;;;;0.40;0.40;;;;;;;;;;1875965;75;26239;-47
2022/09/07 08:16:18;;;;;;;0.88;0.30;;;;;;;;;;1879839;75;26734;-47
2022/09/07 08:18:45;;;;;;;1.02;0.40;;;;;;;;;;1879799;75;26700;-47
2022/09/07 08:21:14;;;;;;;0.30;0.28;;;;;;;;;;1879619;75;26652;-47
2022/09/07 08:23:42;;;;;;;1.67;0.20;;;;;;;;;;1881945;75;26243;-47
2022/09/07 08:26:09;;;;;;;1.67;0.40;;;;;;;;;;1879148;75;26604;-45
2022/09/07 08:28:37;;;;;;;0.90;0.40;;;;;;;;;;1889912;75;26247;-43
2022/09/07 08:31:06;;;;;;;1.82;0.50;;;;;;;;;;1889419;75;26809;-41
2022/09/07 08:33:36;;;;;;;0.57;0.40;;;;;;;;;;1890699;75;26231;-48
2022/09/07 08:36:06;;;;;;;0.30;0.30;;;;;;;;;;1882023;75;26718;-42
2022/09/07 08:38:34;;;;;;;1.85;0.20;;;;;;;;;;1886778;75;26510;-48
2022/09/07 08:41:04;;;;;;;0.40;0.40;;;;;;;;;;1888419;75;26278;-48
2022/09/07 08:43:47;;;;;;;2.58;0.30;;;;;;;;;;1884023;75;27390;-44
2022/09/07 08:46:33;;;;;;;3.72;0.40;;;;;;;;;;1886003;75;26358;-42
2022/09/07 08:49:02;;;;;;;0.55;0.50;;;;;;;;;;1887334;75;26332;-42
2022/09/07 08:51:30;;;;;;;1.15;0.40;;;;;;;;;;1876447;75;26227;-41
2022/09/07 08:53:58;;;;;;;0.30;0.30;;;;;;;;;;1881680;75;26305;-42
2022/09/07 08:56:27;;;;;;;0.28;0.28;;;;;;;;;;1887495;75;27370;-47
2022/09/07 08:58:54;;;;;;;0.30;0.30;;;;;;;;;;1878928;75;26275;-43
2022/09/07 09:01:23;;;;;;;0.53;0.30;;;;;;;;;;1882838;75;26305;-45
2022/09/07 09:03:50;;;;;;;2.30;0.30;;;;;;;;;;1882595;75;26247;-45
2022/09/07 09:06:22;;;;;;;0.20;0.20;;;;;;;;;;1886007;74;25701;-42
2022/09/07 09:08:50;;;;;;;0.20;0.20;;;;;;;;;;1892881;75;26229;-45
2022/09/07 09:11:22;;;;;;;1.95;0.30;;;;;;;;;;1875437;75;26297;-43
2022/09/07 09:14:02;;;;;;;0.28;0.28;;;;;;;;;;1888359;75;26247;-43
2022/09/07 09:16:47;;;;;;;0.30;0.30;;;;;;;;;;1889934;75;26254;-46
2022/09/07 09:19:24;;;;;;;0.20;0.20;;;;;;;;;;1867646;75;26718;-44
2022/09/07 09:22:08;;;;;;;0.20;0.20;;;;;;;;;;1895009;75;26231;-45
2022/09/07 09:24:37;;;;;;;0.20;0.20;;;;;;;;;;1871121;75;26247;-46
2022/09/07 09:27:05;;;;;;;0.20;0.20;;;;;;;;;;1893629;75;26238;-48
2022/09/07 09:29:32;;;;;;;0.25;0.25;;;;;;;;;;1890190;75;26601;-44
2022/09/07 09:32:01;;;;;;;1.55;0.13;;;;;;;;;;1879047;74;26774;-48
2022/09/07 09:34:29;;;;;;;0.20;0.20;;;;;;;;;;1889966;75;27510;-48
2022/09/07 09:36:56;;;;;;;0.28;0.28;;;;;;;;;;1880283;74;26190;-44
2022/09/07 09:39:34;;;;;;;0.10;0.10;;;;;;;;;;1893422;75;26326;-42
2022/09/07 09:42:08;;;;;;;0.20;0.20;;;;;;;;;;1879460;75;26212;-41
2022/09/07 09:44:39;;;;;;;0.10;0.10;;;;;;;;;;1883870;75;26736;-47
2022/09/07 09:47:06;;;;;;;0.10;0.10;;;;;;;;;;1898131;75;26250;-44
2022/09/07 09:49:38;;;;;;;0.20;0.20;;;;;;;;;;1902422;75;26529;-44
2022/09/07 09:52:07;;;;;;;0.20;0.20;;;;;;;;;;1882002;75;26723;-45
2022/09/07 09:54:36;;;;;;;0.10;0.10;;;;;;;;;;1882611;75;27493;-47
2022/09/07 09:57:03;;;;;;;2.92;0.20;;;;;;;;;;1884561;75;26344;-44
2022/09/07 09:59:32;;;;;;;0.10;0.10;;;;;;;;;;1889224;75;26860;-47
2022/09/07 10:01:59;;;;;;;0.20;0.20;;;;;;;;;;1890426;75;26760;-45
2022/09/07 10:04:32;;;;;;;0.05;0.05;;;;;;;;;;1887629;75;26323;-45
2022/09/07 10:07:01;;;;;;;0.40;0.10;;;;;;;;;;1859552;75;26911;-48
2022/09/07 10:09:29;;;;;;;0.20;0.20;;;;;;;;;;1858710;76;26328;-43
2022/09/07 10:11:58;;;;;;;0.10;0.10;;;;;;;;;;1846480;76;26202;-42
2022/09/07 10:14:27;;;;;;;0.10;0.10;;;;;;;;;;1847317;77;26297;-44
2022/09/07 10:16:55;;;;;;;2.00;0.20;;;;;;;;;;1849616;76;26327;-44
2022/09/07 10:19:26;;;;;;;2.37;0.57;;;;;;;;;;1849295;77;26238;-42
2022/09/07 10:21:56;;;;;;;2.05;0.30;;;;;;;;;;1857009;76;26250;-43
2022/09/07 10:24:27;;;;;;;0.20;0.20;;;;;;;;;;1851910;77;26730;-43
2022/09/07 10:26:55;;;;;;;0.00;0.00;;;;;;;;;;1855773;77;26240;-47
2022/09/07 10:29:30;;;;;;;0.20;0.17;;;;;;;;;;1850169;76;26341;-43
2022/09/07 10:31:58;;;;;;;0.10;0.10;;;;;;;;;;1851873;77;26783;-45
2022/09/07 10:34:27;;;;;;;0.20;0.20;;;;;;;;;;1859199;77;26702;-44
2022/09/07 10:37:05;;;;;;;0.10;0.10;;;;;;;;;;1854291;76;26705;-45
2022/09/07 10:39:34;;;;;;;0.37;0.37;;;;;;;;;;1859812;76;26332;-46
2022/09/07 10:42:03;;;;;;;1.10;0.20;;;;;;;;;;1853395;76;26266;-43
2022/09/07 10:44:32;;;;;;;0.17;0.17;;;;;;;;;;1862423;77;26312;-43
2022/09/07 10:47:04;;;;;;;0.10;0.10;;;;;;;;;;1855548;76;26305;-44
2022/09/07 10:49:42;;;;;;;0.20;0.20;;;;;;;;;;1853317;76;26309;-51
2022/09/07 10:52:11;;;;;;;1.30;0.10;;;;;;;;;;1861234;76;26274;-48
2022/09/07 10:54:46;;;;;;;1.20;0.30;;;;;;;;;;1859504;76;26323;-47
2022/09/07 10:57:30;;;;;;;0.20;0.20;;;;;;;;;;1846568;76;26382;-46
2022/09/07 11:00:14;;;;;;;0.30;0.20;;;;;;;;;;1857011;76;27413;-49
2022/09/07 11:02:42;;;;;;;0.28;0.25;;;;;;;;;;1856316;76;26278;-46
2022/09/07 11:05:28;;;;;;;0.20;0.20;;;;;;;;;;1857523;77;26262;-44
2022/09/07 11:07:59;;;;;;;0.20;0.20;;;;;;;;;;1894073;75;26851;-43
2022/09/07 11:10:37;;;;;;;1.17;0.20;;;;;;;;;;1878267;75;26249;-40
2022/09/07 11:13:05;;;;;;;0.28;0.20;;;;;;;;;;1896048;75;26291;-45
2022/09/07 11:15:43;;;;;;;0.10;0.10;;;;;;;;;;1887176;75;26328;-41
2022/09/07 11:18:18;;;;;;;0.20;0.20;;;;;;;;;;1886260;75;26871;-42
2022/09/07 11:20:53;;;;;;;0.20;0.20;;;;;;;;;;1880711;75;27396;-43
2022/09/07 11:23:17;;;;;;;0.30;0.20;;;;;;;;;;1885875;75;26306;-42
2022/09/07 11:25:52;;;;;;;0.20;0.20;;;;;;;;;;1887980;75;26676;-46
2022/09/07 11:28:30;;;;;;;0.10;0.10;;;;;;;;;;1883616;75;26744;-46
2022/09/07 11:31:02;;;;;;;0.17;0.17;;;;;;;;;;1877720;75;26732;-39
2022/09/07 11:33:31;;;;;;;0.85;0.10;;;;;;;;;;1891662;75;26305;-41
2022/09/07 11:36:02;;;;;;;0.10;0.10;;;;;;;;;;1888462;75;26377;-49
2022/09/07 11:38:34;;;;;;;0.10;0.10;;;;;;;;;;1886090;75;26316;-46
2022/09/07 11:41:03;;;;;;;0.10;0.10;;;;;;;;;;1883894;75;26822;-48
2022/09/07 11:43:32;;;;;;;0.15;0.15;;;;;;;;;;1888886;75;27271;-40
2022/09/07 11:46:03;;;;;;;0.10;0.10;;;;;;;;;;1887426;75;26690;-42
2022/09/07 11:48:31;;;;;;;0.10;0.10;;;;;;;;;;1870379;75;26266;-44
2022/09/07 11:51:03;;;;;;;0.10;0.10;;;;;;;;;;1895073;75;26625;-44
2022/09/07 11:53:32;;;;;;;0.10;0.10;;;;;;;;;;1882122;75;26240;-42
2022/09/07 11:56:01;;;;;;;0.17;0.10;;;;;;;;;;1886142;75;26722;-42
2022/09/07 11:58:47;;;;;;;0.10;0.10;;;;;;;;;;1887334;75;26731;-45
2022/09/07 12:01:16;;;;;;;2.50;0.47;;;;;;;;;;1895348;75;26262;-45
2022/09/07 12:03:45;;;;;;;1.15;0.47;;;;;;;;;;1887620;75;26255;-40
2022/09/07 12:06:17;;;;;;;0.55;0.20;;;;;;;;;;1877642;75;26564;-45
2022/09/07 12:08:52;;;;;;;0.20;0.20;;;;;;;;;;1884448;75;26313;-47
2022/09/07 12:11:23;;;;;;;1.12;0.30;;;;;;;;;;1885611;75;26243;-45
2022/09/07 12:14:02;;;;;;;0.10;0.10;;;;;;;;;;1880946;75;26314;-46
2022/09/07 12:16:30;;;;;;;4.85;0.20;;;;;;;;;;1888303;75;26329;-45
2022/09/07 12:19:17;;;;;;;0.20;0.20;;;;;;;;;;1895101;75;26329;-45
2022/09/07 12:21:54;;;;;;;0.10;0.10;;;;;;;;;;1874559;75;26223;-47
2022/09/07 12:24:38;;;;;;;0.17;0.17;;;;;;;;;;1878483;75;26679;-41
2022/09/07 12:27:24;;;;;;;0.20;0.20;;;;;;;;;;1891780;75;26259;-40
2022/09/07 12:30:00;;;;;;;1.35;0.20;;;;;;;;;;1886398;75;26317;-39
2022/09/07 12:32:48;;;;;;;0.10;0.10;;;;;;;;;;1873700;75;26723;-43
2022/09/07 12:35:32;;;;;;;0.10;0.10;;;;;;;;;;1883249;75;26754;-41
2022/09/07 12:38:19;;;;;;;1.37;0.10;;;;;;;;;;1889852;75;26247;-42
2022/09/07 12:41:00;;;;;;;0.98;0.10;;;;;;;;;;1886068;75;26693;-43
2022/09/07 12:43:28;;;;;;;0.10;0.10;;;;;;;;;;1890500;75;26251;-43
2022/09/07 12:45:56;;;;;;;0.28;0.28;;;;;;;;;;1895457;75;26243;-49
2022/09/07 12:48:25;;;;;;;0.85;0.10;;;;;;;;;;1891452;75;26352;-44
2022/09/07 12:51:02;;;;;;;0.10;0.10;;;;;;;;;;1890073;75;26196;-44
2022/09/07 12:53:43;;;;;;;0.20;0.20;;;;;;;;;;1890267;75;26321;-43
2022/09/07 12:56:23;;;;;;;0.17;0.17;;;;;;;;;;1886983;75;27485;-46
2022/09/07 12:59:05;;;;;;;0.10;0.10;;;;;;;;;;1888925;75;26254;-43
2022/09/07 13:01:33;;;;;;;0.10;0.10;;;;;;;;;;1892683;75;26546;-44
2022/09/07 13:04:05;;;;;;;0.15;0.15;;;;;;;;;;1895021;75;26675;-45
2022/09/07 13:06:40;;;;;;;0.20;0.20;;;;;;;;;;1891290;75;26255;-44
2022/09/07 13:09:15;;;;;;;0.10;0.10;;;;;;;;;;1875093;75;26302;-44
2022/09/07 13:11:42;;;;;;;0.20;0.20;;;;;;;;;;1881780;76;26267;-45
2022/09/07 13:14:14;;;;;;;0.35;0.13;;;;;;;;;;1881837;75;26232;-43
2022/09/07 13:16:43;;;;;;;0.13;0.10;;;;;;;;;;1877417;75;26381;-47
2022/09/07 13:19:15;;;;;;;0.20;0.20;;;;;;;;;;1883651;76;26320;-44
2022/09/07 13:21:48;;;;;;;1.95;0.20;;;;;;;;;;1880946;76;26302;-50
2022/09/07 13:24:20;;;;;;;1.25;0.10;;;;;;;;;;1882887;76;26368;-50
2022/09/07 13:26:52;;;;;;;0.10;0.10;;;;;;;;;;1883527;76;26243;-45
2022/09/07 13:29:21;;;;;;;0.42;0.00;;;;;;;;;;1884545;76;26321;-45
2022/09/07 13:31:49;;;;;;;0.57;0.15;;;;;;;;;;1877220;76;26351;-45
2022/09/07 13:34:30;;;;;;;0.10;0.10;;;;;;;;;;1879264;76;26314;-46
2022/09/07 13:36:58;;;;;;;1.57;0.10;;;;;;;;;;1880128;76;26252;-42
2022/09/07 13:39:26;;;;;;;7.40;0.20;;;;;;;;;;1880284;76;26668;-47
2022/09/07 13:41:55;;;;;;;0.10;0.10;;;;;;;;;;1865280;76;26706;-48
2022/09/07 13:44:24;;;;;;;0.03;0.03;;;;;;;;;;1879366;76;26216;-45
2022/09/07 13:46:58;;;;;;;0.20;0.10;;;;;;;;;;1882788;76;26656;-45
2022/09/07 13:49:28;;;;;;;0.15;0.10;;;;;;;;;;1884965;76;26858;-47
2022/09/07 13:51:57;;;;;;;1.32;0.28;;;;;;;;;;1883452;76;26722;-47
2022/09/07 13:54:26;;;;;;;0.10;0.10;;;;;;;;;;1874004;76;27124;-49
2022/09/07 13:57:00;;;;;;;0.05;0.05;;;;;;;;;;1879912;76;26262;-46
2022/09/07 13:59:30;;;;;;;0.10;0.10;;;;;;;;;;1874901;75;26248;-48
2022/09/07 14:01:57;;;;;;;0.13;0.13;;;;;;;;;;1878732;75;26259;-48
2022/09/07 14:04:32;;;;;;;1.52;0.10;;;;;;;;;;1860787;76;26267;-46
2022/09/07 14:07:05;;;;;;;0.20;0.20;;;;;;;;;;1875630;75;26296;-49
2022/09/07 14:09:33;;;;;;;0.10;0.10;;;;;;;;;;1873451;75;26287;-48
2022/09/07 14:12:01;;;;;;;2.25;0.25;;;;;;;;;;1871900;75;26755;-41
2022/09/07 14:14:32;;;;;;;2.27;0.20;;;;;;;;;;1885990;75;26341;-43
2022/09/07 14:17:01;;;;;;;1.20;0.20;;;;;;;;;;1875519;76;26291;-42
2022/09/07 14:19:39;;;;;;;0.10;0.10;;;;;;;;;;1876262;76;26613;-46
2022/09/07 14:22:08;;;;;;;0.17;0.17;;;;;;;;;;1879311;76;26293;-43
2022/09/07 14:24:36;;;;;;;0.28;0.28;;;;;;;;;;1872415;76;26244;-39
2022/09/07 14:27:04;;;;;;;0.53;0.10;;;;;;;;;;1871189;75;26676;-42
2022/09/07 14:29:33;;;;;;;1.95;0.20;;;;;;;;;;1881034;75;26232;-47
2022/09/07 14:32:01;;;;;;;0.62;0.20;;;;;;;;;;1873120;76;26274;-45
2022/09/07 14:34:33;;;;;;;4.42;0.28;;;;;;;;;;1874740;76;26306;-41
2022/09/07 14:37:02;;;;;;;0.37;0.20;;;;;;;;;;1862325;76;26336;-40
2022/09/07 14:39:31;;;;;;;0.20;0.20;;;;;;;;;;1882218;76;26247;-39
2022/09/07 14:41:58;;;;;;;0.47;0.15;;;;;;;;;;1873231;76;26259;-43
2022/09/07 14:44:27;;;;;;;0.20;0.20;;;;;;;;;;1859740;77;26315;-42
2022/09/07 14:46:54;;;;;;;0.20;0.20;;;;;;;;;;1872248;76;26336;-39
2022/09/07 14:49:22;;;;;;;0.13;0.13;;;;;;;;;;1867734;76;26345;-41
2022/09/07 14:51:51;;;;;;;0.10;0.10;;;;;;;;;;1866777;76;26781;-46
2022/09/07 14:54:19;;;;;;;0.10;0.10;;;;;;;;;;1868407;76;26277;-42
2022/09/07 14:57:05;;;;;;;0.17;0.13;;;;;;;;;;1873958;76;26320;-39
2022/09/07 14:59:34;;;;;;;0.20;0.10;;;;;;;;;;1857001;76;26329;-39
2022/09/07 15:02:22;;;;;;;0.10;0.10;;;;;;;;;;1861857;76;26524;-39